createdAt,value
2023-04-06T00:00:49.698Z,100826.03
2023-04-06T00:03:16.866Z,100826.13
2023-04-06T00:05:43.780Z,100827.72
2023-04-06T00:08:10.925Z,100827.63
2023-04-06T00:10:37.778Z,100831.63
2023-04-06T00:13:04.853Z,100829.69
2023-04-06T00:15:31.741Z,100827.06
2023-04-06T00:17:58.624Z,100818.41
2023-04-06T00:20:25.930Z,100819.66
2023-04-06T00:22:52.893Z,100822.69
2023-04-06T00:25:19.811Z,100820.06
2023-04-06T00:27:46.581Z,100822.34
2023-04-06T00:30:13.605Z,100825.72
2023-04-06T00:32:40.625Z,100824.66
2023-04-06T00:35:08.226Z,100822.22
2023-04-06T00:37:35.022Z,100816.38
2023-04-06T00:40:01.913Z,100820.69
2023-04-06T00:42:28.999Z,100824.53
2023-04-06T00:45:00.825Z,100821.00
2023-04-06T00:47:28.297Z,100820.41
2023-04-06T00:49:55.844Z,100815.38
2023-04-06T00:52:23.005Z,100817.84
2023-04-06T00:54:51.627Z,100819.44
2023-04-06T00:57:20.732Z,100816.72
2023-04-06T00:59:53.496Z,100814.88
2023-04-06T01:02:21.093Z,100810.41
2023-04-06T01:04:51.119Z,100812.56
2023-04-06T01:07:30.112Z,100815.66
2023-04-06T01:10:06.295Z,100811.31
2023-04-06T01:12:34.817Z,100812.09
2023-04-06T01:15:06.797Z,100814.50
2023-04-06T01:17:36.396Z,100810.81
2023-04-06T01:20:10.922Z,100808.28
2023-04-06T01:22:38.832Z,100818.47
2023-04-06T01:25:06.661Z,100817.50
2023-04-06T01:27:41.289Z,100809.75
2023-04-06T01:30:21.074Z,100812.25
2023-04-06T01:32:54.567Z,100807.28
2023-04-06T01:35:38.974Z,100803.88
2023-04-06T01:38:13.484Z,100801.31
2023-04-06T01:40:40.510Z,100802.13
2023-04-06T01:43:07.762Z,100797.63
2023-04-06T01:45:43.631Z,100809.44
2023-04-06T01:48:16.401Z,100806.00
2023-04-06T01:50:44.052Z,100801.59
2023-04-06T01:53:15.424Z,100806.00
2023-04-06T01:55:44.096Z,100802.25
2023-04-06T01:58:31.016Z,100802.06
2023-04-06T02:00:58.751Z,100798.97
2023-04-06T02:03:28.627Z,100799.63
2023-04-06T02:06:05.012Z,100801.97
2023-04-06T02:08:36.998Z,100807.00
2023-04-06T02:11:04.073Z,100799.00
2023-04-06T02:13:37.318Z,100802.25
2023-04-06T02:16:04.420Z,100805.50
2023-04-06T02:18:32.173Z,100797.94
2023-04-06T02:20:59.114Z,100807.53
2023-04-06T02:23:26.259Z,100804.53
2023-04-06T02:25:53.405Z,100812.69
2023-04-06T02:28:20.347Z,100810.25
2023-04-06T02:30:47.733Z,100811.81
2023-04-06T02:33:15.017Z,100813.41
2023-04-06T02:35:46.012Z,100804.72
2023-04-06T02:38:13.085Z,100805.59
2023-04-06T02:40:39.931Z,100807.25
2023-04-06T02:43:18.112Z,100809.00
2023-04-06T02:45:46.108Z,100817.53
2023-04-06T02:48:13.932Z,100813.16
2023-04-06T02:50:40.891Z,100820.59
2023-04-06T02:53:08.742Z,100813.47
2023-04-06T02:55:37.694Z,100819.38
2023-04-06T02:58:04.750Z,100820.88
2023-04-06T03:00:39.757Z,100828.50
2023-04-06T03:03:07.019Z,100819.97
2023-04-06T03:05:34.112Z,100818.06
2023-04-06T03:08:01.177Z,100829.81
2023-04-06T03:10:38.368Z,100827.25
2023-04-06T03:13:05.475Z,100828.75
2023-04-06T03:15:52.244Z,100832.97
2023-04-06T03:18:26.016Z,100830.16
2023-04-06T03:20:55.128Z,100822.41
2023-04-06T03:23:25.893Z,100830.16
2023-04-06T03:25:57.853Z,100830.94
2023-04-06T03:28:24.712Z,100822.59
2023-04-06T03:31:00.768Z,100829.00
2023-04-06T03:33:45.126Z,100823.81
2023-04-06T03:36:19.170Z,100823.81
2023-04-06T03:38:46.258Z,100826.25
2023-04-06T03:41:14.690Z,100827.56
2023-04-06T03:43:46.957Z,100832.28
2023-04-06T03:46:14.052Z,100832.00
2023-04-06T03:48:40.936Z,100835.25
2023-04-06T03:51:07.951Z,100834.56
2023-04-06T03:53:34.778Z,100832.09
2023-04-06T03:56:04.157Z,100841.59
2023-04-06T03:58:32.084Z,100845.63
2023-04-06T04:00:59.002Z,100851.13
2023-04-06T04:03:28.287Z,100855.13
2023-04-06T04:05:56.480Z,100854.25
2023-04-06T04:08:26.026Z,100864.34
2023-04-06T04:10:52.870Z,100860.94
2023-04-06T04:13:20.468Z,100860.44
2023-04-06T04:15:50.104Z,100860.72
2023-04-06T04:18:17.000Z,100871.00
2023-04-06T04:20:43.809Z,100873.53
2023-04-06T04:23:12.518Z,100872.16
2023-04-06T04:25:39.651Z,100869.22
2023-04-06T04:28:07.119Z,100858.53
2023-04-06T04:30:34.362Z,100853.81
2023-04-06T04:33:01.668Z,100859.28
2023-04-06T04:35:29.212Z,100864.81
2023-04-06T04:37:57.797Z,100864.25
2023-04-06T04:40:24.639Z,100859.91
2023-04-06T04:42:57.443Z,100859.00
2023-04-06T04:45:31.207Z,100854.41
2023-04-06T04:48:02.740Z,100858.38
2023-04-06T04:50:37.921Z,100859.28
2023-04-06T04:53:07.096Z,100854.13
2023-04-06T04:55:34.101Z,100861.50
2023-04-06T04:58:03.519Z,100860.03
2023-04-06T05:00:44.971Z,100853.44
2023-04-06T05:03:17.691Z,100853.75
2023-04-06T05:05:47.296Z,100852.75
2023-04-06T05:08:17.304Z,100856.81
2023-04-06T05:10:49.182Z,100852.94
2023-04-06T05:13:17.126Z,100854.31
2023-04-06T05:15:46.561Z,100855.13
2023-04-06T05:18:33.380Z,100858.72
2023-04-06T05:21:02.781Z,100864.03
2023-04-06T05:23:41.577Z,100863.16
2023-04-06T05:26:08.646Z,100867.00
2023-04-06T05:28:35.878Z,100865.44
2023-04-06T05:31:04.071Z,100865.84
2023-04-06T05:33:38.943Z,100863.28
2023-04-06T05:36:09.786Z,100864.38
2023-04-06T05:38:41.149Z,100868.66
2023-04-06T05:41:21.489Z,100867.19
2023-04-06T05:43:49.006Z,100871.63
2023-04-06T05:46:16.025Z,100870.19
2023-04-06T05:48:42.956Z,100870.31
2023-04-06T05:51:11.955Z,100867.22
2023-04-06T05:53:44.891Z,100868.78
2023-04-06T05:56:12.264Z,100870.16
2023-04-06T05:58:40.151Z,100873.06
2023-04-06T06:01:11.023Z,100867.34
2023-04-06T06:03:42.255Z,100864.56
2023-04-06T06:06:09.354Z,100871.53
2023-04-06T06:08:54.137Z,100865.38
2023-04-06T06:11:21.302Z,100858.97
2023-04-06T06:13:50.218Z,100871.53
2023-04-06T06:16:18.528Z,100862.59
2023-04-06T06:18:48.072Z,100865.63
2023-04-06T06:21:15.923Z,100862.75
2023-04-06T06:23:44.061Z,100862.44
2023-04-06T06:26:15.060Z,100860.47
2023-04-06T06:28:42.187Z,100859.25
2023-04-06T06:31:11.672Z,100864.91
2023-04-06T06:33:38.667Z,100861.97
2023-04-06T06:36:05.948Z,100857.09
2023-04-06T06:38:32.848Z,100857.53
2023-04-06T06:40:59.949Z,100865.69
2023-04-06T06:43:30.663Z,100866.16
2023-04-06T06:46:04.611Z,100858.75
2023-04-06T06:48:31.749Z,100861.66
2023-04-06T06:50:58.706Z,100854.19
2023-04-06T06:53:25.986Z,100860.28
2023-04-06T06:55:52.912Z,100859.78
2023-04-06T06:58:21.099Z,100856.25
2023-04-06T07:00:48.765Z,100861.03
2023-04-06T07:03:16.032Z,100866.53
2023-04-06T07:05:54.446Z,100865.09
2023-04-06T07:08:24.338Z,100866.22
2023-04-06T07:10:57.639Z,100856.00
2023-04-06T07:13:25.791Z,100864.94
2023-04-06T07:15:55.980Z,100874.78
2023-04-06T07:18:23.610Z,100870.13
2023-04-06T07:20:50.864Z,100867.16
2023-04-06T07:23:18.423Z,100865.06
2023-04-06T07:25:45.858Z,100862.97
2023-04-06T07:28:12.884Z,100859.16
2023-04-06T07:30:41.445Z,100861.28
2023-04-06T07:33:10.314Z,100858.19
2023-04-06T07:35:37.873Z,100859.91
2023-04-06T07:38:06.384Z,100880.63
2023-04-06T07:40:34.753Z,100863.25
2023-04-06T07:43:03.133Z,100858.06
2023-04-06T07:45:30.730Z,100853.50
2023-04-06T07:47:58.218Z,100857.56
2023-04-06T07:50:27.138Z,100861.97
2023-04-06T07:52:55.119Z,100865.13
2023-04-06T07:55:22.314Z,100865.31
2023-04-06T07:57:49.173Z,100869.28
2023-04-06T08:00:16.844Z,100880.56
2023-04-06T08:02:43.963Z,100859.00
2023-04-06T08:05:11.092Z,100866.34
2023-04-06T08:07:38.233Z,100866.41
2023-04-06T08:10:05.753Z,100867.09
2023-04-06T08:12:35.083Z,100863.69
2023-04-06T08:15:03.528Z,100855.72
2023-04-06T08:17:32.267Z,100866.09
2023-04-06T08:19:59.187Z,100865.78
2023-04-06T08:22:26.242Z,100859.53
2023-04-06T08:24:53.099Z,100856.56
2023-04-06T08:27:20.470Z,100849.91
2023-04-06T08:29:47.437Z,100871.50
2023-04-06T08:32:14.412Z,100853.56
2023-04-06T08:34:41.522Z,100868.63
2023-04-06T08:37:08.578Z,100874.19
2023-04-06T08:39:35.637Z,100876.47
2023-04-06T08:42:04.299Z,100878.19
2023-04-06T08:44:33.301Z,100874.56
2023-04-06T08:47:00.789Z,100883.31
2023-04-06T08:49:27.668Z,100874.44
2023-04-06T08:51:56.232Z,100872.38
2023-04-06T08:54:23.117Z,100874.56
2023-04-06T08:56:50.198Z,100857.31
2023-04-06T08:59:17.156Z,100880.84
2023-04-06T09:01:47.113Z,100872.16
2023-04-06T09:04:14.677Z,100873.00
2023-04-06T09:06:42.266Z,100860.47
2023-04-06T09:09:09.627Z,100866.56
2023-04-06T09:11:47.223Z,100867.44
2023-04-06T09:14:14.359Z,100857.25
2023-04-06T09:16:46.358Z,100860.88
2023-04-06T09:19:13.799Z,100864.41
2023-04-06T09:21:41.271Z,100859.66
2023-04-06T09:24:09.625Z,100854.53
2023-04-06T09:26:47.707Z,100857.72
2023-04-06T09:29:28.220Z,100856.50
2023-04-06T09:32:04.486Z,100844.47
2023-04-06T09:34:31.569Z,100843.63
2023-04-06T09:36:59.519Z,100844.06
2023-04-06T09:39:26.874Z,100852.91
2023-04-06T09:41:55.520Z,100828.88
2023-04-06T09:44:22.801Z,100854.31
2023-04-06T09:46:58.861Z,100852.94
2023-04-06T09:49:29.212Z,100849.66
2023-04-06T09:52:04.658Z,100843.44
2023-04-06T09:54:32.608Z,100857.97
2023-04-06T09:57:11.973Z,100865.91
2023-04-06T09:59:48.338Z,100857.38
2023-04-06T10:02:31.594Z,100840.31
2023-04-06T10:05:10.825Z,100856.41
2023-04-06T10:07:46.251Z,100844.94
2023-04-06T10:10:24.194Z,100835.75
2023-04-06T10:12:51.182Z,100826.41
2023-04-06T10:15:21.914Z,100830.09
2023-04-06T10:17:50.098Z,100823.84
2023-04-06T10:20:31.881Z,100837.56
2023-04-06T10:23:10.035Z,100839.50
2023-04-06T10:25:38.090Z,100852.53
2023-04-06T10:28:11.669Z,100825.09
2023-04-06T10:30:44.882Z,100846.06
2023-04-06T10:33:19.978Z,100858.00
2023-04-06T10:35:47.489Z,100853.41
2023-04-06T10:38:15.526Z,100835.47
2023-04-06T10:40:48.197Z,100828.41
2023-04-06T10:43:21.251Z,100849.63
2023-04-06T10:45:57.207Z,100797.84
2023-04-06T10:48:25.205Z,100850.34
2023-04-06T10:50:55.235Z,100818.41
2023-04-06T10:53:26.721Z,100857.09
2023-04-06T10:55:55.947Z,100845.38
2023-04-06T10:58:27.803Z,100813.25
2023-04-06T11:00:55.609Z,100842.00
2023-04-06T11:03:22.905Z,100816.06
2023-04-06T11:05:51.246Z,100828.75
2023-04-06T11:08:32.437Z,100829.88
2023-04-06T11:11:08.022Z,100831.53
2023-04-06T11:13:46.707Z,100829.47
2023-04-06T11:16:15.516Z,100820.91
2023-04-06T11:18:55.472Z,100822.56
2023-04-06T11:21:34.301Z,100794.38
2023-04-06T11:24:16.387Z,100811.59
2023-04-06T11:26:46.988Z,100803.78
2023-04-06T11:29:14.651Z,100816.16
2023-04-06T11:31:42.943Z,100816.03
2023-04-06T11:34:14.676Z,100816.16
2023-04-06T11:36:42.971Z,100812.13
2023-04-06T11:39:10.754Z,100796.38
2023-04-06T11:41:37.851Z,100800.44
2023-04-06T11:44:05.001Z,100783.22
2023-04-06T11:46:32.243Z,100811.13
2023-04-06T11:49:01.719Z,100804.09
2023-04-06T11:51:29.196Z,100806.16
2023-04-06T11:53:57.117Z,100802.56
2023-04-06T11:56:28.854Z,100781.28
2023-04-06T11:58:57.611Z,100787.41
2023-04-06T12:01:25.495Z,100782.88
2023-04-06T12:03:53.638Z,100793.28
2023-04-06T12:06:21.005Z,100806.59
2023-04-06T12:08:47.906Z,100771.66
2023-04-06T12:11:15.022Z,100783.06
2023-04-06T12:13:42.043Z,100789.28
2023-04-06T12:16:09.015Z,100794.03
2023-04-06T12:18:36.168Z,100793.28
2023-04-06T12:21:03.109Z,100787.16
2023-04-06T12:23:30.045Z,100784.69
2023-04-06T12:25:57.031Z,100788.97
2023-04-06T12:28:28.029Z,100785.22
2023-04-06T12:30:55.983Z,100780.59
2023-04-06T12:33:22.968Z,100776.19
2023-04-06T12:35:50.126Z,100769.81
2023-04-06T12:38:17.122Z,100762.16
2023-04-06T12:40:44.198Z,100761.59
2023-04-06T12:43:11.988Z,100754.94
2023-04-06T12:45:38.942Z,100764.25
2023-04-06T12:48:06.232Z,100751.53
2023-04-06T12:50:33.209Z,100770.66
2023-04-06T12:53:00.117Z,100755.88
2023-04-06T12:55:27.687Z,100753.47
2023-04-06T12:57:55.011Z,100751.13
2023-04-06T13:00:22.527Z,100752.41
2023-04-06T13:02:49.608Z,100751.75
2023-04-06T13:05:19.971Z,100740.53
2023-04-06T13:07:47.938Z,100747.06
2023-04-06T13:10:14.998Z,100739.19
2023-04-06T13:12:42.022Z,100739.72
2023-04-06T13:15:09.460Z,100732.06
2023-04-06T13:17:36.534Z,100701.97
2023-04-06T13:20:04.773Z,100729.44
2023-04-06T13:22:34.705Z,100742.97
2023-04-06T13:25:01.681Z,100739.28
2023-04-06T13:27:28.641Z,100730.31
2023-04-06T13:29:57.166Z,100719.22
2023-04-06T13:32:24.099Z,100736.09
2023-04-06T13:34:51.249Z,100731.13
2023-04-06T13:37:18.196Z,100712.41
2023-04-06T13:39:45.406Z,100734.22
2023-04-06T13:42:12.338Z,100723.63
2023-04-06T13:44:39.222Z,100735.28
2023-04-06T13:47:06.921Z,100733.25
2023-04-06T13:49:33.805Z,100708.63
2023-04-06T13:52:00.808Z,100731.41
2023-04-06T13:54:28.076Z,100746.28
2023-04-06T13:56:55.051Z,100718.53
2023-04-06T13:59:22.419Z,100734.00
2023-04-06T14:01:49.511Z,100729.09
2023-04-06T14:04:16.517Z,100732.38
2023-04-06T14:06:46.343Z,100740.97
2023-04-06T14:09:13.388Z,100730.19
2023-04-06T14:11:40.259Z,100713.25
2023-04-06T14:14:07.081Z,100725.13
2023-04-06T14:16:33.965Z,100714.03
2023-04-06T14:19:00.964Z,100722.03
2023-04-06T14:21:27.829Z,100723.50
2023-04-06T14:23:55.815Z,100723.31
2023-04-06T14:26:23.897Z,100730.97
2023-04-06T14:28:50.968Z,100704.34
2023-04-06T14:31:18.173Z,100717.72
2023-04-06T14:33:46.073Z,100713.56
2023-04-06T14:36:13.277Z,100734.91
2023-04-06T14:38:41.339Z,100713.91
2023-04-06T14:41:09.701Z,100719.22
2023-04-06T14:43:36.616Z,100706.78
2023-04-06T14:46:03.788Z,100703.69
2023-04-06T14:48:30.830Z,100705.41
2023-04-06T14:50:58.314Z,100716.41
2023-04-06T14:53:25.580Z,100733.00
2023-04-06T14:55:52.589Z,100710.25
2023-04-06T14:58:20.482Z,100715.59
2023-04-06T15:00:47.600Z,100717.97
2023-04-06T15:03:15.462Z,100698.81
2023-04-06T15:05:43.228Z,100717.00
2023-04-06T15:08:10.688Z,100713.72
2023-04-06T15:10:37.744Z,100723.56
2023-04-06T15:13:04.663Z,100721.84
2023-04-06T15:15:31.835Z,100716.44
2023-04-06T15:17:58.999Z,100715.88
2023-04-06T15:20:25.966Z,100691.31
2023-04-06T15:22:52.981Z,100708.53
2023-04-06T15:25:19.892Z,100698.16
2023-04-06T15:27:46.876Z,100698.91
2023-04-06T15:30:14.179Z,100703.56
2023-04-06T15:32:41.307Z,100677.38
2023-04-06T15:35:12.345Z,100692.75
2023-04-06T15:37:39.910Z,100698.25
2023-04-06T15:40:07.799Z,100690.47
2023-04-06T15:42:34.693Z,100700.34
2023-04-06T15:45:01.782Z,100695.34
2023-04-06T15:47:28.772Z,100692.34
2023-04-06T15:49:55.609Z,100689.78
2023-04-06T15:52:23.027Z,100680.53
2023-04-06T15:54:50.127Z,100689.44
2023-04-06T15:57:17.030Z,100691.97
2023-04-06T15:59:43.962Z,100689.78
2023-04-06T16:02:11.099Z,100685.53
2023-04-06T16:04:38.811Z,100689.19
2023-04-06T16:07:06.160Z,100684.59
2023-04-06T16:09:33.508Z,100680.13
2023-04-06T16:12:01.568Z,100687.47
2023-04-06T16:14:28.491Z,100684.72
2023-04-06T16:16:55.686Z,100684.03
2023-04-06T16:19:22.581Z,100699.97
2023-04-06T16:21:49.646Z,100670.00
2023-04-06T16:24:16.452Z,100686.13
2023-04-06T16:26:44.539Z,100672.56
2023-04-06T16:29:12.974Z,100682.34
2023-04-06T16:31:39.991Z,100682.69
2023-04-06T16:34:07.276Z,100694.56
2023-04-06T16:36:34.184Z,100684.03
2023-04-06T16:39:02.423Z,100678.06
2023-04-06T16:41:29.328Z,100686.44
2023-04-06T16:43:57.551Z,100674.66
2023-04-06T16:46:35.855Z,100686.16
2023-04-06T16:49:04.479Z,100685.44
2023-04-06T16:51:34.647Z,100681.50
2023-04-06T16:54:02.393Z,100671.41
2023-04-06T16:56:29.471Z,100685.19
2023-04-06T16:58:56.355Z,100678.53
2023-04-06T17:01:26.744Z,100682.84
2023-04-06T17:03:54.714Z,100688.72
2023-04-06T17:06:21.898Z,100695.78
2023-04-06T17:08:49.321Z,100677.81
2023-04-06T17:11:21.735Z,100692.53
2023-04-06T17:13:50.846Z,100684.91
2023-04-06T17:16:18.316Z,100692.47
2023-04-06T17:18:45.370Z,100686.50
2023-04-06T17:21:14.615Z,100678.13
2023-04-06T17:23:41.882Z,100692.13
2023-04-06T17:26:08.824Z,100688.19
2023-04-06T17:28:35.779Z,100685.84
2023-04-06T17:31:02.854Z,100684.81
2023-04-06T17:33:32.527Z,100679.81
2023-04-06T17:35:59.554Z,100682.53
2023-04-06T17:38:29.717Z,100681.81
2023-04-06T17:40:57.923Z,100686.13
2023-04-06T17:43:24.761Z,100668.88
2023-04-06T17:45:52.600Z,100678.25
2023-04-06T17:48:19.668Z,100668.78
2023-04-06T17:50:47.618Z,100670.34
2023-04-06T17:53:17.313Z,100672.88
2023-04-06T17:55:44.597Z,100678.63
2023-04-06T17:58:13.769Z,100675.19
2023-04-06T18:00:45.490Z,100675.16
2023-04-06T18:03:17.623Z,100671.72
2023-04-06T18:05:47.921Z,100681.97
2023-04-06T18:08:15.780Z,100681.06
2023-04-06T18:10:46.173Z,100679.13
2023-04-06T18:13:13.697Z,100681.22
2023-04-06T18:15:40.571Z,100684.56
2023-04-06T18:18:08.055Z,100674.44
2023-04-06T18:20:40.055Z,100667.47
2023-04-06T18:23:06.902Z,100675.31
2023-04-06T18:25:38.447Z,100675.19
2023-04-06T18:28:06.345Z,100674.47
2023-04-06T18:30:33.379Z,100687.97
2023-04-06T18:33:00.581Z,100679.44
2023-04-06T18:35:27.494Z,100683.69
2023-04-06T18:37:54.662Z,100685.06
2023-04-06T18:40:39.055Z,100678.44
2023-04-06T18:43:09.197Z,100682.69
2023-04-06T18:45:41.235Z,100678.41
2023-04-06T18:48:14.227Z,100681.25
2023-04-06T18:50:41.207Z,100686.84
2023-04-06T18:53:08.885Z,100690.91
2023-04-06T18:55:37.054Z,100682.66
2023-04-06T18:58:05.463Z,100681.38
2023-04-06T19:00:35.074Z,100681.47
2023-04-06T19:03:02.691Z,100674.81
2023-04-06T19:05:32.495Z,100678.97
2023-04-06T19:07:59.480Z,100679.66
2023-04-06T19:10:30.901Z,100683.91
2023-04-06T19:12:58.526Z,100673.91
2023-04-06T19:15:26.740Z,100679.28
2023-04-06T19:17:53.945Z,100674.63
2023-04-06T19:20:23.648Z,100649.22
2023-04-06T19:22:51.853Z,100673.56
2023-04-06T19:25:19.789Z,100670.00
2023-04-06T19:27:49.235Z,100678.59
2023-04-06T19:30:18.604Z,100679.25
2023-04-06T19:32:46.134Z,100680.59
2023-04-06T19:35:13.147Z,100679.03
2023-04-06T19:37:40.408Z,100677.28
2023-04-06T19:40:10.523Z,100682.41
2023-04-06T19:42:38.831Z,100667.13
2023-04-06T19:45:07.474Z,100671.31
2023-04-06T19:47:35.662Z,100677.38
2023-04-06T19:50:04.525Z,100681.66
2023-04-06T19:52:33.335Z,100669.63
2023-04-06T19:55:01.027Z,100672.28
2023-04-06T19:57:30.051Z,100672.13
2023-04-06T19:59:56.913Z,100675.50
2023-04-06T20:02:24.080Z,100667.06
2023-04-06T20:04:51.032Z,100667.81
2023-04-06T20:07:18.036Z,100662.63
2023-04-06T20:09:44.859Z,100660.72
2023-04-06T20:12:11.910Z,100665.72
2023-04-06T20:14:38.810Z,100662.59
2023-04-06T20:17:05.780Z,100662.59
2023-04-06T20:19:32.931Z,100657.47
2023-04-06T20:22:03.248Z,100655.94
2023-04-06T20:24:31.383Z,100648.97
2023-04-06T20:26:58.251Z,100641.84
2023-04-06T20:29:26.723Z,100641.06
2023-04-06T20:31:53.652Z,100638.66
2023-04-06T20:34:20.928Z,100631.75
2023-04-06T20:36:47.840Z,100640.25
2023-04-06T20:39:14.737Z,100638.66
2023-04-06T20:41:42.408Z,100622.31
2023-04-06T20:44:09.468Z,100632.47
2023-04-06T20:46:36.512Z,100619.31
2023-04-06T20:49:04.191Z,100631.38
2023-04-06T20:51:31.401Z,100631.31
2023-04-06T20:53:58.508Z,100612.44
2023-04-06T20:56:26.799Z,100635.44
2023-04-06T20:58:54.011Z,100638.56
2023-04-06T21:01:21.159Z,100635.66
2023-04-06T21:03:48.156Z,100631.31
2023-04-06T21:06:15.805Z,100643.72
2023-04-06T21:08:42.644Z,100629.69
2023-04-06T21:11:10.605Z,100617.69
2023-04-06T21:13:37.460Z,100611.19
2023-04-06T21:16:05.690Z,100618.53
2023-04-06T21:18:32.787Z,100602.56
2023-04-06T21:20:59.696Z,100612.88
2023-04-06T21:23:26.743Z,100602.63
2023-04-06T21:25:56.985Z,100604.13
2023-04-06T21:28:25.514Z,100597.53
2023-04-06T21:30:55.993Z,100604.56
2023-04-06T21:33:23.120Z,100610.78
2023-04-06T21:35:50.180Z,100604.66
2023-04-06T21:38:17.077Z,100606.38
2023-04-06T21:40:43.922Z,100619.88
2023-04-06T21:43:11.632Z,100604.53
2023-04-06T21:45:38.818Z,100603.34
2023-04-06T21:48:06.025Z,100613.84
2023-04-06T21:50:32.928Z,100602.44
2023-04-06T21:52:59.784Z,100605.03
2023-04-06T21:55:26.678Z,100600.91
2023-04-06T21:57:53.453Z,100599.63
2023-04-06T22:00:20.713Z,100604.50
2023-04-06T22:02:47.721Z,100601.38
2023-04-06T22:05:14.845Z,100594.50
2023-04-06T22:07:41.816Z,100606.44
2023-04-06T22:10:08.915Z,100600.03
2023-04-06T22:12:35.773Z,100599.63
2023-04-06T22:15:02.840Z,100604.81
2023-04-06T22:17:30.262Z,100590.25
2023-04-06T22:19:57.058Z,100578.91
2023-04-06T22:22:24.849Z,100575.41
2023-04-06T22:24:52.019Z,100577.25
2023-04-06T22:27:18.917Z,100575.09
2023-04-06T22:29:45.778Z,100576.84
2023-04-06T22:32:12.628Z,100562.44
2023-04-06T22:34:39.658Z,100570.28
2023-04-06T22:37:06.509Z,100580.13
2023-04-06T22:39:33.377Z,100567.31
2023-04-06T22:42:00.327Z,100570.72
2023-04-06T22:44:27.181Z,100552.75
2023-04-06T22:46:54.096Z,100557.34
2023-04-06T22:49:20.908Z,100550.47
2023-04-06T22:51:47.702Z,100553.56
2023-04-06T22:54:14.655Z,100548.53
2023-04-06T22:56:41.835Z,100538.44
2023-04-06T22:59:08.856Z,100542.88
2023-04-06T23:01:35.740Z,100546.09
2023-04-06T23:04:02.950Z,100541.75
2023-04-06T23:06:29.869Z,100547.13
2023-04-06T23:08:57.063Z,100540.28
2023-04-06T23:11:24.175Z,100539.97
2023-04-06T23:13:51.104Z,100540.09
2023-04-06T23:16:17.945Z,100529.81
2023-04-06T23:18:44.846Z,100536.59
2023-04-06T23:21:11.630Z,100534.94
2023-04-06T23:23:38.646Z,100530.72
2023-04-06T23:26:06.228Z,100523.81
2023-04-06T23:28:33.091Z,100518.66
2023-04-06T23:30:59.916Z,100522.94
2023-04-06T23:33:28.410Z,100512.69
2023-04-06T23:35:55.526Z,100517.03
2023-04-06T23:38:22.330Z,100516.72
2023-04-06T23:40:49.292Z,100528.53
2023-04-06T23:43:16.083Z,100527.16
2023-04-06T23:45:43.382Z,100518.38
2023-04-06T23:48:10.893Z,100512.72
2023-04-06T23:50:38.254Z,100513.66
2023-04-06T23:53:05.653Z,100506.00
2023-04-06T23:55:32.739Z,100501.00
2023-04-06T23:58:00.486Z,100500.00
